Andover, Iowa
Current Conditions -  °F | °C
As of 7:15 AM on Thursday 30 Oct 2014 (Local Time) from KSFY Reporting Station
Broken Clouds Broken Clouds  
Wind Chill:   Ceiling: 12000
Heat Index:   Visibility: 10mi
Dew Point: -1°   Wind: 0mph
Humidity: 95%   Direction: NA
Pressure: 30.12"   Gusts: NA
Location:  41.98°N, 90.25°W
Report Text: KSFY 301215Z AUTO 00000KT 10SM BKN120 00/00 A3012 RMK AO2 T00021005
Loading
Personal Weather Stations






























Interactive Weather Map
Tropical Storm Tracking
New forecast layout! Learn more

10-Day Weather Forecast

Advertisements
Track Severe Weather on mobile